sensor_id;sensor_type;location;lat;lon;timestamp;P1;durP1;ratioP1;P2;durP2;ratioP2
60847;SDS011;46681;47.696;9.140;2023-06-26T00:02:18;5.17;;;4.77;;
60847;SDS011;46681;47.696;9.140;2023-06-26T00:04:46;5.07;;;4.57;;
60847;SDS011;46681;47.696;9.140;2023-06-26T00:07:11;5.40;;;5.00;;
60847;SDS011;46681;47.696;9.140;2023-06-26T00:09:37;6.10;;;5.60;;
60847;SDS011;46681;47.696;9.140;2023-06-26T00:12:02;4.70;;;4.30;;
60847;SDS011;46681;47.696;9.140;2023-06-26T00:14:29;5.10;;;4.70;;
60847;SDS011;46681;47.696;9.140;2023-06-26T00:16:55;5.43;;;4.63;;
60847;SDS011;46681;47.696;9.140;2023-06-26T00:19:21;5.37;;;4.93;;
60847;SDS011;46681;47.696;9.140;2023-06-26T00:21:46;5.00;;;4.60;;
60847;SDS011;46681;47.696;9.140;2023-06-26T00:24:14;4.97;;;4.53;;
60847;SDS011;46681;47.696;9.140;2023-06-26T00:26:41;5.47;;;5.00;;
60847;SDS011;46681;47.696;9.140;2023-06-26T00:29:06;5.63;;;5.13;;
60847;SDS011;46681;47.696;9.140;2023-06-26T00:31:34;5.60;;;5.10;;
60847;SDS011;46681;47.696;9.140;2023-06-26T00:33:59;5.23;;;4.73;;
60847;SDS011;46681;47.696;9.140;2023-06-26T00:36:25;5.43;;;4.63;;
60847;SDS011;46681;47.696;9.140;2023-06-26T00:38:50;4.97;;;4.47;;
60847;SDS011;46681;47.696;9.140;2023-06-26T00:41:16;5.33;;;4.80;;
60847;SDS011;46681;47.696;9.140;2023-06-26T00:43:41;5.20;;;4.70;;
60847;SDS011;46681;47.696;9.140;2023-06-26T00:46:12;5.37;;;4.93;;
60847;SDS011;46681;47.696;9.140;2023-06-26T00:48:39;5.10;;;4.70;;
60847;SDS011;46681;47.696;9.140;2023-06-26T00:51:06;5.20;;;4.80;;
60847;SDS011;46681;47.696;9.140;2023-06-26T00:53:33;5.00;;;4.60;;
60847;SDS011;46681;47.696;9.140;2023-06-26T00:56:00;5.10;;;4.70;;
60847;SDS011;46681;47.696;9.140;2023-06-26T00:58:32;5.70;;;5.20;;
60847;SDS011;46681;47.696;9.140;2023-06-26T01:00:58;5.77;;;5.33;;
60847;SDS011;46681;47.696;9.140;2023-06-26T01:03:24;5.37;;;4.90;;
60847;SDS011;46681;47.696;9.140;2023-06-26T01:05:51;4.60;;;4.20;;
60847;SDS011;46681;47.696;9.140;2023-06-26T01:08:20;5.60;;;5.10;;
60847;SDS011;46681;47.696;9.140;2023-06-26T01:10:48;5.57;;;5.13;;
60847;SDS011;46681;47.696;9.140;2023-06-26T01:13:15;5.70;;;5.20;;
60847;SDS011;46681;47.696;9.140;2023-06-26T01:15:41;6.17;;;5.67;;
60847;SDS011;46681;47.696;9.140;2023-06-26T01:18:11;5.43;;;5.03;;
60847;SDS011;46681;47.696;9.140;2023-06-26T01:20:39;5.50;;;5.00;;
60847;SDS011;46681;47.696;9.140;2023-06-26T01:23:12;4.97;;;4.47;;
60847;SDS011;46681;47.696;9.140;2023-06-26T01:28:31;5.50;;;4.97;;
60847;SDS011;46681;47.696;9.140;2023-06-26T01:30:58;5.93;;;5.43;;
60847;SDS011;46681;47.696;9.140;2023-06-26T01:33:25;5.07;;;4.67;;
60847;SDS011;46681;47.696;9.140;2023-06-26T01:35:55;5.90;;;5.40;;
60847;SDS011;46681;47.696;9.140;2023-06-26T01:38:22;5.63;;;5.17;;
60847;SDS011;46681;47.696;9.140;2023-06-26T01:40:47;5.83;;;5.33;;
60847;SDS011;46681;47.696;9.140;2023-06-26T01:49:11;6.30;;;5.73;;
60847;SDS011;46681;47.696;9.140;2023-06-26T01:51:47;5.70;;;5.20;;
60847;SDS011;46681;47.696;9.140;2023-06-26T01:54:30;6.13;;;5.60;;
60847;SDS011;46681;47.696;9.140;2023-06-26T01:57:02;5.57;;;5.17;;
60847;SDS011;46681;47.696;9.140;2023-06-26T01:59:29;5.50;;;5.10;;
60847;SDS011;46681;47.696;9.140;2023-06-26T02:02:02;5.93;;;4.90;;
60847;SDS011;46681;47.696;9.140;2023-06-26T02:04:32;5.77;;;5.27;;
60847;SDS011;46681;47.696;9.140;2023-06-26T02:06:59;5.50;;;5.07;;
60847;SDS011;46681;47.696;9.140;2023-06-26T02:09:24;6.37;;;5.77;;
60847;SDS011;46681;47.696;9.140;2023-06-26T02:11:52;5.20;;;4.70;;
60847;SDS011;46681;47.696;9.140;2023-06-26T02:14:18;6.07;;;5.43;;
60847;SDS011;46681;47.696;9.140;2023-06-26T02:16:46;5.63;;;5.13;;
60847;SDS011;46681;47.696;9.140;2023-06-26T02:19:11;5.97;;;5.47;;
60847;SDS011;46681;47.696;9.140;2023-06-26T02:21:37;5.67;;;5.17;;
60847;SDS011;46681;47.696;9.140;2023-06-26T02:24:02;5.20;;;4.50;;
60847;SDS011;46681;47.696;9.140;2023-06-26T02:26:30;5.20;;;4.80;;
60847;SDS011;46681;47.696;9.140;2023-06-26T02:28:55;7.03;;;5.47;;
60847;SDS011;46681;47.696;9.140;2023-06-26T02:31:21;5.50;;;5.00;;
60847;SDS011;46681;47.696;9.140;2023-06-26T02:33:46;5.97;;;5.47;;
60847;SDS011;46681;47.696;9.140;2023-06-26T02:36:12;5.97;;;5.47;;
60847;SDS011;46681;47.696;9.140;2023-06-26T02:38:37;5.40;;;5.00;;
60847;SDS011;46681;47.696;9.140;2023-06-26T02:41:02;7.20;;;5.40;;
60847;SDS011;46681;47.696;9.140;2023-06-26T02:43:28;6.33;;;5.83;;
60847;SDS011;46681;47.696;9.140;2023-06-26T02:45:53;5.70;;;5.20;;
60847;SDS011;46681;47.696;9.140;2023-06-26T02:48:19;5.00;;;4.53;;
60847;SDS011;46681;47.696;9.140;2023-06-26T02:50:45;5.83;;;5.33;;
60847;SDS011;46681;47.696;9.140;2023-06-26T02:53:10;6.00;;;5.50;;
60847;SDS011;46681;47.696;9.140;2023-06-26T02:55:36;5.70;;;5.20;;
60847;SDS011;46681;47.696;9.140;2023-06-26T02:58:02;6.07;;;5.50;;
60847;SDS011;46681;47.696;9.140;2023-06-26T03:00:27;6.10;;;5.50;;
60847;SDS011;46681;47.696;9.140;2023-06-26T03:02:55;5.60;;;5.20;;
60847;SDS011;46681;47.696;9.140;2023-06-26T03:05:20;5.90;;;5.40;;
60847;SDS011;46681;47.696;9.140;2023-06-26T03:07:46;5.80;;;5.30;;
60847;SDS011;46681;47.696;9.140;2023-06-26T03:10:13;7.10;;;5.37;;
60847;SDS011;46681;47.696;9.140;2023-06-26T03:12:40;5.90;;;5.40;;
60847;SDS011;46681;47.696;9.140;2023-06-26T03:15:05;5.77;;;5.27;;
60847;SDS011;46681;47.696;9.140;2023-06-26T03:17:31;5.67;;;5.17;;
60847;SDS011;46681;47.696;9.140;2023-06-26T03:19:57;6.00;;;5.50;;
60847;SDS011;46681;47.696;9.140;2023-06-26T03:22:22;5.80;;;5.30;;
60847;SDS011;46681;47.696;9.140;2023-06-26T03:24:48;5.83;;;5.37;;
60847;SDS011;46681;47.696;9.140;2023-06-26T03:27:13;5.17;;;4.77;;
60847;SDS011;46681;47.696;9.140;2023-06-26T03:29:38;5.90;;;5.40;;
60847;SDS011;46681;47.696;9.140;2023-06-26T03:32:05;6.23;;;5.63;;
60847;SDS011;46681;47.696;9.140;2023-06-26T03:34:31;5.90;;;5.40;;
60847;SDS011;46681;47.696;9.140;2023-06-26T03:36:57;5.67;;;5.17;;
60847;SDS011;46681;47.696;9.140;2023-06-26T03:39:23;6.57;;;5.27;;
60847;SDS011;46681;47.696;9.140;2023-06-26T03:41:48;5.43;;;5.03;;
60847;SDS011;46681;47.696;9.140;2023-06-26T03:44:14;5.87;;;5.37;;
60847;SDS011;46681;47.696;9.140;2023-06-26T03:46:41;5.37;;;4.93;;
60847;SDS011;46681;47.696;9.140;2023-06-26T03:49:07;7.30;;;5.67;;
60847;SDS011;46681;47.696;9.140;2023-06-26T03:51:33;5.30;;;4.80;;
60847;SDS011;46681;47.696;9.140;2023-06-26T03:53:59;6.07;;;5.47;;
60847;SDS011;46681;47.696;9.140;2023-06-26T03:56:25;5.80;;;5.30;;
60847;SDS011;46681;47.696;9.140;2023-06-26T03:58:55;6.20;;;5.70;;
60847;SDS011;46681;47.696;9.140;2023-06-26T04:01:22;5.57;;;5.10;;
60847;SDS011;46681;47.696;9.140;2023-06-26T04:03:48;5.00;;;4.60;;
60847;SDS011;46681;47.696;9.140;2023-06-26T04:06:14;5.80;;;5.30;;
60847;SDS011;46681;47.696;9.140;2023-06-26T04:08:40;5.93;;;5.43;;
60847;SDS011;46681;47.696;9.140;2023-06-26T04:11:06;5.90;;;5.37;;
60847;SDS011;46681;47.696;9.140;2023-06-26T04:13:32;5.50;;;5.03;;
60847;SDS011;46681;47.696;9.140;2023-06-26T04:15:59;5.87;;;5.37;;
60847;SDS011;46681;47.696;9.140;2023-06-26T04:18:25;5.60;;;5.00;;
60847;SDS011;46681;47.696;9.140;2023-06-26T04:21:09;6.07;;;5.10;;
60847;SDS011;46681;47.696;9.140;2023-06-26T04:23:37;6.17;;;5.57;;
60847;SDS011;46681;47.696;9.140;2023-06-26T04:26:05;7.30;;;5.80;;
60847;SDS011;46681;47.696;9.140;2023-06-26T04:28:32;6.33;;;5.73;;
60847;SDS011;46681;47.696;9.140;2023-06-26T04:30:59;6.70;;;6.10;;
60847;SDS011;46681;47.696;9.140;2023-06-26T04:33:27;6.20;;;5.60;;
60847;SDS011;46681;47.696;9.140;2023-06-26T04:35:57;6.67;;;6.03;;
60847;SDS011;46681;47.696;9.140;2023-06-26T04:38:25;6.10;;;5.57;;
60847;SDS011;46681;47.696;9.140;2023-06-26T04:40:50;6.57;;;5.97;;
60847;SDS011;46681;47.696;9.140;2023-06-26T04:43:16;6.90;;;6.20;;
60847;SDS011;46681;47.696;9.140;2023-06-26T04:45:43;6.43;;;5.83;;
60847;SDS011;46681;47.696;9.140;2023-06-26T04:48:10;6.60;;;5.90;;
60847;SDS011;46681;47.696;9.140;2023-06-26T04:50:40;6.57;;;5.90;;
60847;SDS011;46681;47.696;9.140;2023-06-26T04:53:10;6.33;;;5.83;;
60847;SDS011;46681;47.696;9.140;2023-06-26T04:55:44;6.43;;;5.83;;
60847;SDS011;46681;47.696;9.140;2023-06-26T04:58:16;6.60;;;6.00;;
60847;SDS011;46681;47.696;9.140;2023-06-26T05:00:58;6.10;;;5.50;;
60847;SDS011;46681;47.696;9.140;2023-06-26T05:03:23;5.40;;;5.00;;
60847;SDS011;46681;47.696;9.140;2023-06-26T05:05:49;6.23;;;5.63;;
60847;SDS011;46681;47.696;9.140;2023-06-26T05:13:47;6.37;;;5.60;;
60847;SDS011;46681;47.696;9.140;2023-06-26T05:16:15;6.13;;;5.53;;
60847;SDS011;46681;47.696;9.140;2023-06-26T05:18:41;6.27;;;5.67;;
60847;SDS011;46681;47.696;9.140;2023-06-26T05:21:08;6.30;;;5.77;;
60847;SDS011;46681;47.696;9.140;2023-06-26T05:23:44;6.07;;;5.50;;
60847;SDS011;46681;47.696;9.140;2023-06-26T05:26:12;6.27;;;5.70;;
60847;SDS011;46681;47.696;9.140;2023-06-26T05:28:42;6.20;;;5.60;;
60847;SDS011;46681;47.696;9.140;2023-06-26T05:31:15;6.87;;;6.03;;
60847;SDS011;46681;47.696;9.140;2023-06-26T05:33:50;7.77;;;5.90;;
60847;SDS011;46681;47.696;9.140;2023-06-26T05:36:22;9.40;;;6.17;;
60847;SDS011;46681;47.696;9.140;2023-06-26T05:39:02;6.50;;;5.90;;
60847;SDS011;46681;47.696;9.140;2023-06-26T05:41:36;7.00;;;6.30;;
60847;SDS011;46681;47.696;9.140;2023-06-26T05:44:03;6.73;;;6.10;;
60847;SDS011;46681;47.696;9.140;2023-06-26T05:46:45;7.07;;;6.37;;
60847;SDS011;46681;47.696;9.140;2023-06-26T05:49:11;6.50;;;5.90;;
60847;SDS011;46681;47.696;9.140;2023-06-26T05:51:44;7.00;;;6.30;;
60847;SDS011;46681;47.696;9.140;2023-06-26T05:54:23;7.13;;;5.80;;
60847;SDS011;46681;47.696;9.140;2023-06-26T05:56:57;6.83;;;5.80;;
60847;SDS011;46681;47.696;9.140;2023-06-26T05:59:24;7.33;;;6.67;;
60847;SDS011;46681;47.696;9.140;2023-06-26T06:01:50;7.40;;;6.63;;
60847;SDS011;46681;47.696;9.140;2023-06-26T06:04:24;7.27;;;6.57;;
60847;SDS011;46681;47.696;9.140;2023-06-26T06:06:53;7.00;;;6.33;;
60847;SDS011;46681;47.696;9.140;2023-06-26T06:09:20;7.13;;;6.30;;
60847;SDS011;46681;47.696;9.140;2023-06-26T06:11:45;8.67;;;6.90;;
60847;SDS011;46681;47.696;9.140;2023-06-26T06:14:44;8.70;;;7.30;;
60847;SDS011;46681;47.696;9.140;2023-06-26T06:17:12;9.97;;;6.83;;
60847;SDS011;46681;47.696;9.140;2023-06-26T06:19:46;10.13;;;7.10;;
60847;SDS011;46681;47.696;9.140;2023-06-26T06:22:21;7.87;;;7.20;;
60847;SDS011;46681;47.696;9.140;2023-06-26T06:24:49;8.53;;;6.40;;
60847;SDS011;46681;47.696;9.140;2023-06-26T06:27:32;7.30;;;6.50;;
60847;SDS011;46681;47.696;9.140;2023-06-26T06:29:57;7.17;;;6.57;;
60847;SDS011;46681;47.696;9.140;2023-06-26T06:32:23;8.30;;;6.90;;
60847;SDS011;46681;47.696;9.140;2023-06-26T06:34:49;7.10;;;6.40;;
60847;SDS011;46681;47.696;9.140;2023-06-26T06:37:19;7.10;;;6.40;;
60847;SDS011;46681;47.696;9.140;2023-06-26T06:39:45;6.63;;;5.97;;
60847;SDS011;46681;47.696;9.140;2023-06-26T06:42:19;7.40;;;6.70;;
60847;SDS011;46681;47.696;9.140;2023-06-26T06:44:45;6.77;;;6.17;;
60847;SDS011;46681;47.696;9.140;2023-06-26T06:47:56;7.33;;;6.73;;
60847;SDS011;46681;47.696;9.140;2023-06-26T06:50:22;7.17;;;6.43;;
60847;SDS011;46681;47.696;9.140;2023-06-26T06:52:56;6.67;;;6.07;;
60847;SDS011;46681;47.696;9.140;2023-06-26T06:55:22;6.93;;;6.17;;
60847;SDS011;46681;47.696;9.140;2023-06-26T06:58:00;7.27;;;6.57;;
60847;SDS011;46681;47.696;9.140;2023-06-26T07:00:31;7.20;;;6.00;;
60847;SDS011;46681;47.696;9.140;2023-06-26T07:03:14;7.37;;;6.67;;
60847;SDS011;46681;47.696;9.140;2023-06-26T07:05:50;6.17;;;5.67;;
60847;SDS011;46681;47.696;9.140;2023-06-26T07:08:28;7.70;;;5.87;;
60847;SDS011;46681;47.696;9.140;2023-06-26T07:10:56;6.90;;;6.20;;
60847;SDS011;46681;47.696;9.140;2023-06-26T07:13:32;6.60;;;5.90;;
60847;SDS011;46681;47.696;9.140;2023-06-26T07:15:59;6.63;;;5.97;;
60847;SDS011;46681;47.696;9.140;2023-06-26T07:18:26;6.50;;;5.90;;
60847;SDS011;46681;47.696;9.140;2023-06-26T07:20:51;6.03;;;5.53;;
60847;SDS011;46681;47.696;9.140;2023-06-26T07:23:19;6.33;;;5.83;;
60847;SDS011;46681;47.696;9.140;2023-06-26T07:25:54;6.77;;;6.07;;
60847;SDS011;46681;47.696;9.140;2023-06-26T07:28:19;7.33;;;6.63;;
60847;SDS011;46681;47.696;9.140;2023-06-26T07:30:57;7.20;;;6.60;;
60847;SDS011;46681;47.696;9.140;2023-06-26T07:33:33;7.70;;;6.40;;
60847;SDS011;46681;47.696;9.140;2023-06-26T07:35:59;7.57;;;5.90;;
60847;SDS011;46681;47.696;9.140;2023-06-26T07:38:56;7.23;;;6.53;;
60847;SDS011;46681;47.696;9.140;2023-06-26T07:44:24;7.93;;;6.00;;
60847;SDS011;46681;47.696;9.140;2023-06-26T07:47:42;7.43;;;6.20;;
60847;SDS011;46681;47.696;9.140;2023-06-26T07:50:08;7.10;;;6.40;;
60847;SDS011;46681;47.696;9.140;2023-06-26T07:52:42;6.73;;;6.13;;
60847;SDS011;46681;47.696;9.140;2023-06-26T07:55:08;6.87;;;6.27;;
60847;SDS011;46681;47.696;9.140;2023-06-26T07:58:05;5.33;;;4.93;;
60847;SDS011;46681;47.696;9.140;2023-06-26T08:00:32;6.07;;;5.43;;
60847;SDS011;46681;47.696;9.140;2023-06-26T08:03:18;6.40;;;5.90;;
60847;SDS011;46681;47.696;9.140;2023-06-26T08:06:28;6.20;;;5.70;;
60847;SDS011;46681;47.696;9.140;2023-06-26T08:09:33;6.57;;;5.70;;
60847;SDS011;46681;47.696;9.140;2023-06-26T08:12:08;5.80;;;5.30;;
60847;SDS011;46681;47.696;9.140;2023-06-26T08:14:52;8.03;;;5.40;;
60847;SDS011;46681;47.696;9.140;2023-06-26T08:17:36;6.57;;;5.97;;
60847;SDS011;46681;47.696;9.140;2023-06-26T08:20:19;6.53;;;5.93;;
60847;SDS011;46681;47.696;9.140;2023-06-26T08:22:51;5.60;;;5.20;;
60847;SDS011;46681;47.696;9.140;2023-06-26T08:25:56;5.77;;;5.27;;
60847;SDS011;46681;47.696;9.140;2023-06-26T08:28:44;6.10;;;5.60;;
60847;SDS011;46681;47.696;9.140;2023-06-26T08:31:34;6.20;;;5.63;;
60847;SDS011;46681;47.696;9.140;2023-06-26T08:34:01;5.80;;;5.30;;
60847;SDS011;46681;47.696;9.140;2023-06-26T08:36:37;6.20;;;5.33;;
60847;SDS011;46681;47.696;9.140;2023-06-26T08:42:13;5.90;;;5.17;;
60847;SDS011;46681;47.696;9.140;2023-06-26T08:48:48;5.67;;;5.20;;
60847;SDS011;46681;47.696;9.140;2023-06-26T08:58:32;5.77;;;5.27;;
60847;SDS011;46681;47.696;9.140;2023-06-26T09:01:46;5.47;;;4.97;;
60847;SDS011;46681;47.696;9.140;2023-06-26T09:04:26;5.53;;;5.03;;
60847;SDS011;46681;47.696;9.140;2023-06-26T09:10:28;5.73;;;5.27;;
60847;SDS011;46681;47.696;9.140;2023-06-26T09:12:58;6.47;;;5.13;;
60847;SDS011;46681;47.696;9.140;2023-06-26T09:15:24;6.97;;;5.87;;
60847;SDS011;46681;47.696;9.140;2023-06-26T09:23:50;7.67;;;5.93;;
60847;SDS011;46681;47.696;9.140;2023-06-26T09:26:20;11.00;;;5.50;;
60847;SDS011;46681;47.696;9.140;2023-06-26T09:29:04;6.70;;;5.97;;
60847;SDS011;46681;47.696;9.140;2023-06-26T09:31:46;10.77;;;5.90;;
60847;SDS011;46681;47.696;9.140;2023-06-26T09:34:32;7.17;;;5.43;;
60847;SDS011;46681;47.696;9.140;2023-06-26T09:40:05;6.80;;;5.47;;
60847;SDS011;46681;47.696;9.140;2023-06-26T09:46:06;6.80;;;5.30;;
60847;SDS011;46681;47.696;9.140;2023-06-26T09:49:03;6.57;;;5.43;;
60847;SDS011;46681;47.696;9.140;2023-06-26T09:52:01;6.30;;;4.97;;
60847;SDS011;46681;47.696;9.140;2023-06-26T09:55:20;5.20;;;4.80;;
60847;SDS011;46681;47.696;9.140;2023-06-26T10:01:21;7.83;;;5.93;;
60847;SDS011;46681;47.696;9.140;2023-06-26T10:19:33;5.27;;;4.87;;
60847;SDS011;46681;47.696;9.140;2023-06-26T10:22:24;5.83;;;5.00;;
60847;SDS011;46681;47.696;9.140;2023-06-26T10:34:31;5.60;;;4.73;;
60847;SDS011;46681;47.696;9.140;2023-06-26T11:05:09;5.30;;;4.50;;
60847;SDS011;46681;47.696;9.140;2023-06-26T11:44:58;4.10;;;3.80;;
60847;SDS011;46681;47.696;9.140;2023-06-26T11:51:15;4.57;;;4.27;;
60847;SDS011;46681;47.696;9.140;2023-06-26T11:54:25;4.67;;;3.67;;
60847;SDS011;46681;47.696;9.140;2023-06-26T12:03:26;4.65;;;4.25;;
60847;SDS011;46681;47.696;9.140;2023-06-26T12:06:20;5.05;;;4.53;;
60847;SDS011;46681;47.696;9.140;2023-06-26T12:09:33;4.53;;;4.13;;
60847;SDS011;46681;47.696;9.140;2023-06-26T12:12:26;4.22;;;3.92;;
60847;SDS011;46681;47.696;9.140;2023-06-26T12:27:55;4.43;;;4.00;;
60847;SDS011;46681;47.696;9.140;2023-06-26T12:43:25;3.90;;;3.60;;
60847;SDS011;46681;47.696;9.140;2023-06-26T12:46:19;4.10;;;3.80;;
60847;SDS011;46681;47.696;9.140;2023-06-26T12:52:10;38.10;;;5.80;;
60847;SDS011;46681;47.696;9.140;2023-06-26T13:07:25;7.63;;;4.10;;
60847;SDS011;46681;47.696;9.140;2023-06-26T13:10:06;11.73;;;5.00;;
60847;SDS011;46681;47.696;9.140;2023-06-26T13:12:51;6.73;;;4.20;;
60847;SDS011;46681;47.696;9.140;2023-06-26T13:16:06;6.40;;;4.50;;
60847;SDS011;46681;47.696;9.140;2023-06-26T13:22:21;4.70;;;4.17;;
60847;SDS011;46681;47.696;9.140;2023-06-26T13:28:10;6.20;;;4.80;;
60847;SDS011;46681;47.696;9.140;2023-06-26T13:43:13;6.38;;;4.72;;
60847;SDS011;46681;47.696;9.140;2023-06-26T13:46:11;6.00;;;5.40;;
60847;SDS011;46681;47.696;9.140;2023-06-26T13:52:30;5.07;;;4.68;;
60847;SDS011;46681;47.696;9.140;2023-06-26T13:58:31;4.72;;;4.32;;
60847;SDS011;46681;47.696;9.140;2023-06-26T14:01:11;4.47;;;4.18;;
60847;SDS011;46681;47.696;9.140;2023-06-26T14:04:12;4.82;;;4.43;;
60847;SDS011;46681;47.696;9.140;2023-06-26T14:09:34;4.85;;;4.50;;
60847;SDS011;46681;47.696;9.140;2023-06-26T14:12:39;5.07;;;4.68;;
60847;SDS011;46681;47.696;9.140;2023-06-26T14:21:49;5.50;;;5.10;;
60847;SDS011;46681;47.696;9.140;2023-06-26T14:27:57;5.68;;;5.13;;
60847;SDS011;46681;47.696;9.140;2023-06-26T14:31:11;7.63;;;5.00;;
60847;SDS011;46681;47.696;9.140;2023-06-26T14:40:13;5.40;;;4.90;;
60847;SDS011;46681;47.696;9.140;2023-06-26T14:42:58;5.80;;;5.30;;
60847;SDS011;46681;47.696;9.140;2023-06-26T14:45:47;5.70;;;5.10;;
60847;SDS011;46681;47.696;9.140;2023-06-26T14:51:36;6.57;;;5.23;;
60847;SDS011;46681;47.696;9.140;2023-06-26T14:54:26;5.73;;;5.03;;
60847;SDS011;46681;47.696;9.140;2023-06-26T15:12:35;5.03;;;4.63;;
60847;SDS011;46681;47.696;9.140;2023-06-26T15:15:15;6.07;;;5.43;;
60847;SDS011;46681;47.696;9.140;2023-06-26T15:24:43;6.30;;;5.07;;
60847;SDS011;46681;47.696;9.140;2023-06-26T15:30:32;5.73;;;4.83;;
60847;SDS011;46681;47.696;9.140;2023-06-26T15:33:27;5.37;;;4.97;;
60847;SDS011;46681;47.696;9.140;2023-06-26T15:36:30;6.13;;;5.40;;
60847;SDS011;46681;47.696;9.140;2023-06-26T15:42:26;6.03;;;5.63;;
60847;SDS011;46681;47.696;9.140;2023-06-26T15:45:32;6.07;;;5.37;;
60847;SDS011;46681;47.696;9.140;2023-06-26T15:48:17;6.40;;;5.87;;
60847;SDS011;46681;47.696;9.140;2023-06-26T15:50:46;7.13;;;5.97;;
60847;SDS011;46681;47.696;9.140;2023-06-26T15:53:53;5.70;;;5.23;;
60847;SDS011;46681;47.696;9.140;2023-06-26T15:56:26;5.97;;;5.10;;
60847;SDS011;46681;47.696;9.140;2023-06-26T15:58:59;5.80;;;5.30;;
60847;SDS011;46681;47.696;9.140;2023-06-26T16:01:24;6.47;;;5.70;;
60847;SDS011;46681;47.696;9.140;2023-06-26T16:04:24;5.87;;;5.10;;
60847;SDS011;46681;47.696;9.140;2023-06-26T16:06:52;5.93;;;5.33;;
60847;SDS011;46681;47.696;9.140;2023-06-26T16:09:17;6.53;;;5.87;;
60847;SDS011;46681;47.696;9.140;2023-06-26T16:11:56;6.03;;;5.53;;
60847;SDS011;46681;47.696;9.140;2023-06-26T16:18:09;6.43;;;5.63;;
60847;SDS011;46681;47.696;9.140;2023-06-26T16:27:24;9.07;;;5.57;;
60847;SDS011;46681;47.696;9.140;2023-06-26T16:33:31;7.37;;;5.70;;
60847;SDS011;46681;47.696;9.140;2023-06-26T16:36:37;5.57;;;4.93;;
60847;SDS011;46681;47.696;9.140;2023-06-26T16:42:40;8.13;;;5.87;;
60847;SDS011;46681;47.696;9.140;2023-06-26T16:45:55;6.30;;;5.70;;
60847;SDS011;46681;47.696;9.140;2023-06-26T16:49:01;6.00;;;5.03;;
60847;SDS011;46681;47.696;9.140;2023-06-26T16:52:05;5.90;;;5.33;;
60847;SDS011;46681;47.696;9.140;2023-06-26T16:58:10;5.57;;;5.10;;
60847;SDS011;46681;47.696;9.140;2023-06-26T17:13:03;5.27;;;4.70;;
60847;SDS011;46681;47.696;9.140;2023-06-26T17:15:51;5.60;;;5.10;;
60847;SDS011;46681;47.696;9.140;2023-06-26T17:21:24;4.80;;;4.40;;
60847;SDS011;46681;47.696;9.140;2023-06-26T17:23:54;5.27;;;4.87;;
60847;SDS011;46681;47.696;9.140;2023-06-26T17:38:44;4.80;;;4.47;;
60847;SDS011;46681;47.696;9.140;2023-06-26T17:41:20;5.23;;;4.63;;
60847;SDS011;46681;47.696;9.140;2023-06-26T17:44:18;5.70;;;4.60;;
60847;SDS011;46681;47.696;9.140;2023-06-26T17:49:43;5.47;;;4.40;;
60847;SDS011;46681;47.696;9.140;2023-06-26T17:52:41;4.57;;;4.27;;
60847;SDS011;46681;47.696;9.140;2023-06-26T17:55:51;4.90;;;4.50;;
60847;SDS011;46681;47.696;9.140;2023-06-26T17:58:33;4.90;;;4.40;;
60847;SDS011;46681;47.696;9.140;2023-06-26T18:01:12;4.33;;;4.00;;
60847;SDS011;46681;47.696;9.140;2023-06-26T18:04:07;4.10;;;3.80;;
60847;SDS011;46681;47.696;9.140;2023-06-26T18:06:51;4.17;;;3.87;;
60847;SDS011;46681;47.696;9.140;2023-06-26T18:09:22;4.50;;;4.10;;
60847;SDS011;46681;47.696;9.140;2023-06-26T18:11:50;4.00;;;3.70;;
60847;SDS011;46681;47.696;9.140;2023-06-26T18:14:28;4.40;;;4.07;;
60847;SDS011;46681;47.696;9.140;2023-06-26T18:16:54;4.43;;;4.13;;
60847;SDS011;46681;47.696;9.140;2023-06-26T18:19:22;4.40;;;3.90;;
60847;SDS011;46681;47.696;9.140;2023-06-26T18:21:48;4.90;;;3.97;;
60847;SDS011;46681;47.696;9.140;2023-06-26T18:24:13;6.03;;;4.27;;
60847;SDS011;46681;47.696;9.140;2023-06-26T18:26:51;5.83;;;4.57;;
60847;SDS011;46681;47.696;9.140;2023-06-26T18:29:16;9.10;;;4.03;;
60847;SDS011;46681;47.696;9.140;2023-06-26T18:31:44;4.97;;;4.00;;
60847;SDS011;46681;47.696;9.140;2023-06-26T18:34:10;5.23;;;4.30;;
60847;SDS011;46681;47.696;9.140;2023-06-26T18:36:37;8.00;;;3.80;;
60847;SDS011;46681;47.696;9.140;2023-06-26T18:39:28;5.43;;;3.80;;
60847;SDS011;46681;47.696;9.140;2023-06-26T18:42:00;5.73;;;3.97;;
60847;SDS011;46681;47.696;9.140;2023-06-26T18:44:39;5.63;;;3.80;;
60847;SDS011;46681;47.696;9.140;2023-06-26T18:47:51;4.57;;;3.50;;
60847;SDS011;46681;47.696;9.140;2023-06-26T18:50:32;5.13;;;4.00;;
60847;SDS011;46681;47.696;9.140;2023-06-26T18:53:05;4.13;;;3.73;;
60847;SDS011;46681;47.696;9.140;2023-06-26T18:55:52;6.10;;;4.30;;
60847;SDS011;46681;47.696;9.140;2023-06-26T18:58:21;5.50;;;3.53;;
60847;SDS011;46681;47.696;9.140;2023-06-26T19:01:27;4.53;;;3.70;;
60847;SDS011;46681;47.696;9.140;2023-06-26T19:04:23;4.37;;;3.50;;
60847;SDS011;46681;47.696;9.140;2023-06-26T19:07:15;3.47;;;3.17;;
60847;SDS011;46681;47.696;9.140;2023-06-26T19:09:40;3.50;;;3.20;;
60847;SDS011;46681;47.696;9.140;2023-06-26T19:12:06;5.47;;;3.97;;
60847;SDS011;46681;47.696;9.140;2023-06-26T19:14:51;5.13;;;3.53;;
60847;SDS011;46681;47.696;9.140;2023-06-26T19:17:24;3.93;;;3.40;;
60847;SDS011;46681;47.696;9.140;2023-06-26T19:19:50;4.47;;;4.07;;
60847;SDS011;46681;47.696;9.140;2023-06-26T19:22:38;4.43;;;3.43;;
60847;SDS011;46681;47.696;9.140;2023-06-26T19:25:06;4.07;;;3.40;;
60847;SDS011;46681;47.696;9.140;2023-06-26T19:27:49;4.13;;;3.83;;
60847;SDS011;46681;47.696;9.140;2023-06-26T19:30:25;4.27;;;3.37;;
60847;SDS011;46681;47.696;9.140;2023-06-26T19:32:50;4.63;;;3.90;;
60847;SDS011;46681;47.696;9.140;2023-06-26T19:35:18;4.10;;;3.70;;
60847;SDS011;46681;47.696;9.140;2023-06-26T19:37:44;4.13;;;3.77;;
60847;SDS011;46681;47.696;9.140;2023-06-26T19:40:21;4.30;;;4.00;;
60847;SDS011;46681;47.696;9.140;2023-06-26T19:42:54;4.43;;;4.03;;
60847;SDS011;46681;47.696;9.140;2023-06-26T19:45:37;4.80;;;4.00;;
60847;SDS011;46681;47.696;9.140;2023-06-26T19:48:21;4.03;;;3.73;;
60847;SDS011;46681;47.696;9.140;2023-06-26T19:50:50;5.23;;;4.77;;
60847;SDS011;46681;47.696;9.140;2023-06-26T19:53:20;4.73;;;4.33;;
60847;SDS011;46681;47.696;9.140;2023-06-26T19:55:52;4.70;;;4.20;;
60847;SDS011;46681;47.696;9.140;2023-06-26T19:58:29;5.07;;;4.67;;
60847;SDS011;46681;47.696;9.140;2023-06-26T20:00:55;6.07;;;4.20;;
60847;SDS011;46681;47.696;9.140;2023-06-26T20:03:20;4.37;;;4.07;;
60847;SDS011;46681;47.696;9.140;2023-06-26T20:05:50;4.67;;;3.97;;
60847;SDS011;46681;47.696;9.140;2023-06-26T20:08:24;4.60;;;4.20;;
60847;SDS011;46681;47.696;9.140;2023-06-26T20:10:51;5.33;;;4.77;;
60847;SDS011;46681;47.696;9.140;2023-06-26T20:13:18;5.00;;;4.60;;
60847;SDS011;46681;47.696;9.140;2023-06-26T20:15:49;4.70;;;4.33;;
60847;SDS011;46681;47.696;9.140;2023-06-26T20:18:24;5.20;;;4.80;;
60847;SDS011;46681;47.696;9.140;2023-06-26T20:20:50;4.60;;;4.07;;
60847;SDS011;46681;47.696;9.140;2023-06-26T20:23:16;4.77;;;4.27;;
60847;SDS011;46681;47.696;9.140;2023-06-26T20:25:42;4.20;;;3.80;;
60847;SDS011;46681;47.696;9.140;2023-06-26T20:28:08;4.57;;;4.17;;
60847;SDS011;46681;47.696;9.140;2023-06-26T20:30:42;4.70;;;4.30;;
60847;SDS011;46681;47.696;9.140;2023-06-26T20:33:13;4.90;;;4.33;;
60847;SDS011;46681;47.696;9.140;2023-06-26T20:35:44;4.60;;;4.20;;
60847;SDS011;46681;47.696;9.140;2023-06-26T20:38:19;4.87;;;4.47;;
60847;SDS011;46681;47.696;9.140;2023-06-26T20:40:56;4.43;;;4.13;;
60847;SDS011;46681;47.696;9.140;2023-06-26T20:43:23;4.97;;;3.97;;
60847;SDS011;46681;47.696;9.140;2023-06-26T20:45:50;4.60;;;4.20;;
60847;SDS011;46681;47.696;9.140;2023-06-26T20:48:20;4.23;;;3.93;;
60847;SDS011;46681;47.696;9.140;2023-06-26T20:50:48;4.20;;;3.90;;
60847;SDS011;46681;47.696;9.140;2023-06-26T20:53:17;4.63;;;4.03;;
60847;SDS011;46681;47.696;9.140;2023-06-26T20:55:43;4.60;;;4.20;;